createdAt,value
2022-12-31T00:03:45.340Z,2.3
2022-12-31T00:08:43.331Z,2.2
2022-12-31T00:13:41.434Z,2.1
2022-12-31T00:18:39.674Z,1.9
2022-12-31T00:23:37.845Z,1.7
2022-12-31T00:28:35.895Z,1.5
2022-12-31T00:33:33.979Z,1.3
2022-12-31T00:38:32.405Z,1.2
2022-12-31T00:43:30.504Z,1
2022-12-31T00:48:28.780Z,0.9
2022-12-31T00:53:27.066Z,0.8
2022-12-31T00:58:25.401Z,0.8
2022-12-31T01:03:23.881Z,0.6
2022-12-31T01:08:21.911Z,0.6
2022-12-31T01:13:20.242Z,0.3
2022-12-31T01:18:18.575Z,0.1
2022-12-31T01:23:16.882Z,0.2
2022-12-31T01:28:15.046Z,0.2
2022-12-31T01:33:13.332Z,0.1
2022-12-31T01:38:11.422Z,0.1
2022-12-31T01:43:09.923Z,0.1
2022-12-31T01:48:08.088Z,0.1
2022-12-31T01:53:06.285Z,0
2022-12-31T01:58:04.577Z,0
2022-12-31T02:03:02.849Z,0
2022-12-31T02:08:01.076Z,0.2
2022-12-31T02:12:59.569Z,0.2
2022-12-31T02:17:57.750Z,0.3
2022-12-31T02:22:56.158Z,0.4
2022-12-31T02:27:54.549Z,0.5
2022-12-31T02:32:52.879Z,0.4
2022-12-31T02:37:51.383Z,0.4
2022-12-31T02:42:54.993Z,0.4
2022-12-31T02:47:47.855Z,0.4
2022-12-31T02:52:45.716Z,0.5
2022-12-31T02:57:43.926Z,0.4
2022-12-31T03:02:42.230Z,0.3
2022-12-31T03:07:40.356Z,0.1
2022-12-31T03:12:38.313Z,-0.1
2022-12-31T03:17:36.437Z,-0.3
2022-12-31T03:22:34.666Z,-0.4
2022-12-31T03:27:32.639Z,-0.4
2022-12-31T03:32:30.568Z,-0.4
2022-12-31T03:37:29.186Z,-0.5
2022-12-31T03:42:27.160Z,-0.7
2022-12-31T03:47:25.383Z,-0.7
2022-12-31T03:52:24.619Z,-0.7
2022-12-31T03:57:22.711Z,-0.7
2022-12-31T04:02:26.402Z,-0.8
2022-12-31T04:07:19.449Z,-0.7
2022-12-31T04:12:17.808Z,-0.7
2022-12-31T04:17:16.359Z,-0.5
2022-12-31T04:22:15.095Z,-0.1
2022-12-31T04:27:13.686Z,0
2022-12-31T04:32:12.060Z,0.2
2022-12-31T04:37:10.453Z,0.3
2022-12-31T04:42:08.714Z,0.3
2022-12-31T04:47:06.964Z,0.3
2022-12-31T04:52:05.281Z,0.4
2022-12-31T04:57:03.547Z,0.6
2022-12-31T05:02:01.951Z,0.6
2022-12-31T05:07:00.133Z,0.7
2022-12-31T05:11:58.302Z,0.8
2022-12-31T05:16:56.866Z,0.8
2022-12-31T05:21:55.363Z,0.9
2022-12-31T05:26:53.569Z,0.9
2022-12-31T05:31:51.778Z,1
2022-12-31T05:36:49.982Z,1
2022-12-31T05:41:48.173Z,1.1
2022-12-31T05:46:46.414Z,1
2022-12-31T05:51:44.661Z,1.1
2022-12-31T05:56:42.967Z,0.9
2022-12-31T06:01:41.315Z,0.4
2022-12-31T06:06:39.219Z,0.3
2022-12-31T06:11:37.323Z,0.1
2022-12-31T06:16:35.482Z,0.1
2022-12-31T06:21:33.934Z,0.3
2022-12-31T06:26:32.253Z,0.4
2022-12-31T06:31:30.586Z,0.6
2022-12-31T06:36:29.319Z,1
2022-12-31T06:41:28.018Z,1.5
2022-12-31T06:46:26.757Z,1.9
2022-12-31T06:51:25.527Z,2.4
2022-12-31T06:56:29.541Z,2.7
2022-12-31T07:01:23.195Z,3.1
2022-12-31T07:06:21.998Z,3.9
2022-12-31T07:11:22.280Z,5.4
2022-12-31T07:16:20.872Z,5.8
2022-12-31T07:21:19.799Z,6.8
2022-12-31T07:26:18.069Z,6.6
2022-12-31T07:31:16.754Z,7.2
2022-12-31T07:36:15.490Z,7.7
2022-12-31T07:41:20.412Z,12.8
2022-12-31T07:46:20.297Z,14.1
2022-12-31T07:51:16.438Z,11.2
2022-12-31T07:56:19.040Z,16
2022-12-31T08:01:19.441Z,16.7
2022-12-31T08:06:19.071Z,18.6
2022-12-31T08:11:18.778Z,19.5
2022-12-31T08:16:18.757Z,20.1
2022-12-31T08:21:17.609Z,20.6
2022-12-31T08:26:16.870Z,21.7
2022-12-31T08:31:16.371Z,22.1
2022-12-31T08:36:15.185Z,22.5
2022-12-31T08:41:13.918Z,22.9
2022-12-31T08:46:12.740Z,23
2022-12-31T08:51:11.230Z,23.2
2022-12-31T08:56:09.696Z,23.5
2022-12-31T09:01:08.774Z,23.9
2022-12-31T09:06:07.409Z,24
2022-12-31T09:11:06.391Z,24.3
2022-12-31T09:16:04.917Z,24.8
2022-12-31T09:21:03.924Z,24.9
2022-12-31T09:26:02.467Z,24.9
2022-12-31T09:31:00.510Z,25.3
2022-12-31T09:35:58.922Z,25.1
2022-12-31T09:40:57.201Z,25.6
2022-12-31T09:45:55.610Z,25.8
2022-12-31T09:50:54.004Z,26.3
2022-12-31T09:55:52.359Z,25.8
2022-12-31T10:00:50.697Z,26
2022-12-31T10:05:48.807Z,25.8
2022-12-31T10:10:47.671Z,26.4
2022-12-31T10:15:46.082Z,26.5
2022-12-31T10:20:45.530Z,26.7
2022-12-31T10:25:42.916Z,27.4
2022-12-31T10:30:41.906Z,27.8
2022-12-31T10:35:40.425Z,27.9
2022-12-31T10:40:38.880Z,27.4
2022-12-31T10:45:36.409Z,26.5
2022-12-31T10:50:34.311Z,26.2
2022-12-31T10:55:32.310Z,25.8
2022-12-31T11:00:30.415Z,25.1
2022-12-31T11:05:28.109Z,24.4
2022-12-31T11:10:25.855Z,23.9
2022-12-31T11:15:23.169Z,22.7
2022-12-31T11:20:20.369Z,21.4
2022-12-31T11:25:17.209Z,20
2022-12-31T11:30:14.599Z,19.1
2022-12-31T11:35:11.602Z,18.4
2022-12-31T11:40:09.307Z,17.7
2022-12-31T11:45:07.721Z,17.6
2022-12-31T11:50:05.485Z,16.9
2022-12-31T11:55:03.467Z,16.4
2022-12-31T12:00:00.995Z,15.8
2022-12-31T12:04:58.750Z,15.4
2022-12-31T12:09:56.641Z,15
2022-12-31T12:14:54.808Z,14.5
2022-12-31T12:19:52.890Z,14.3
2022-12-31T12:24:50.808Z,14.1
2022-12-31T12:29:48.702Z,13.9
2022-12-31T12:34:49.791Z,13.6
2022-12-31T12:39:44.707Z,13.3
2022-12-31T12:44:42.768Z,13
2022-12-31T12:49:40.954Z,12.6
2022-12-31T12:54:39.034Z,12.2
2022-12-31T12:59:37.280Z,11.2
2022-12-31T13:04:35.680Z,10.1
2022-12-31T13:09:32.987Z,9.3
2022-12-31T13:14:31.136Z,9
2022-12-31T13:19:29.364Z,8.6
2022-12-31T13:24:27.560Z,8.6
2022-12-31T13:29:25.780Z,8.3
2022-12-31T13:34:23.763Z,8.2
2022-12-31T13:39:22.073Z,8
2022-12-31T13:44:20.192Z,7.9
2022-12-31T13:49:18.446Z,7.6
2022-12-31T13:54:16.719Z,7.4
2022-12-31T13:59:14.828Z,7.3
2022-12-31T14:04:12.972Z,7.1
2022-12-31T14:09:11.287Z,6.9
2022-12-31T14:14:09.412Z,6.7
2022-12-31T14:19:07.692Z,6.5
2022-12-31T14:24:06.276Z,6.3
2022-12-31T14:29:04.500Z,6.1
2022-12-31T14:34:02.695Z,5.9
2022-12-31T14:39:01.024Z,5.7
2022-12-31T14:43:58.959Z,5.5
2022-12-31T14:48:57.315Z,5.3
2022-12-31T14:53:55.490Z,5.1
2022-12-31T14:58:53.835Z,5
2022-12-31T15:03:51.982Z,4.7
2022-12-31T15:08:50.133Z,4.6
2022-12-31T15:13:48.348Z,4.5
2022-12-31T15:18:46.440Z,4.3
2022-12-31T15:23:44.603Z,4.2
2022-12-31T15:28:42.898Z,4.1
2022-12-31T15:33:41.340Z,4
2022-12-31T15:38:39.694Z,3.8
2022-12-31T15:43:37.873Z,3.7
2022-12-31T15:48:36.325Z,3.6
2022-12-31T15:53:34.562Z,3.4
2022-12-31T15:58:33.047Z,3.3
2022-12-31T16:03:31.367Z,3.2
2022-12-31T16:08:29.752Z,3.2
2022-12-31T16:13:27.994Z,3.1
2022-12-31T16:18:26.127Z,3
2022-12-31T16:23:24.360Z,3
2022-12-31T16:28:22.671Z,3
2022-12-31T16:33:20.960Z,2.9
2022-12-31T16:38:19.247Z,2.9
2022-12-31T16:43:17.497Z,2.9
2022-12-31T16:48:17.092Z,2.9
2022-12-31T16:53:14.498Z,2.9
2022-12-31T16:58:12.780Z,2.9
2022-12-31T17:03:11.055Z,2.8
2022-12-31T17:08:09.073Z,2.7
2022-12-31T17:18:05.783Z,2.5
2022-12-31T17:23:04.036Z,2.5
2022-12-31T17:28:02.422Z,2.5
2022-12-31T17:33:00.956Z,2.5
2022-12-31T17:37:59.396Z,2.5
2022-12-31T17:42:57.827Z,2.5
2022-12-31T17:47:56.056Z,2.4
2022-12-31T17:52:54.170Z,2.2
2022-12-31T17:57:52.360Z,2.3
2022-12-31T18:02:50.791Z,2.3
2022-12-31T18:07:48.962Z,2.2
2022-12-31T18:12:47.247Z,2.2
2022-12-31T18:17:45.556Z,2.2
2022-12-31T18:22:43.850Z,2.1
2022-12-31T18:27:41.942Z,2.1
2022-12-31T18:32:40.239Z,2.1
2022-12-31T18:37:38.596Z,2.1
2022-12-31T18:42:37.091Z,2
2022-12-31T18:47:37.741Z,2.1
2022-12-31T18:52:33.976Z,1.9
2022-12-31T18:57:32.208Z,1.7
2022-12-31T19:02:30.551Z,1.6
2022-12-31T19:07:28.499Z,1.5
2022-12-31T19:12:26.769Z,1.4
2022-12-31T19:17:25.013Z,1.3
2022-12-31T19:22:22.913Z,1.3
2022-12-31T19:27:21.080Z,1.3
2022-12-31T19:32:19.396Z,1.3
2022-12-31T19:37:17.607Z,1.2
2022-12-31T19:42:15.802Z,1.1
2022-12-31T19:47:13.969Z,1.1
2022-12-31T19:52:11.874Z,1.1
2022-12-31T19:57:10.144Z,1
2022-12-31T20:02:08.653Z,1
2022-12-31T20:07:06.844Z,1
2022-12-31T20:12:05.002Z,1
2022-12-31T20:17:03.475Z,1
2022-12-31T20:22:01.432Z,0.8
2022-12-31T20:26:59.462Z,0.9
2022-12-31T20:31:57.727Z,0.8
2022-12-31T20:36:55.933Z,0.6
2022-12-31T20:41:54.208Z,0.5
2022-12-31T20:46:52.512Z,0.4
2022-12-31T20:51:52.266Z,0.4
2022-12-31T20:56:48.978Z,0.3
2022-12-31T21:02:19.817Z,0.4
2022-12-31T21:06:45.209Z,0.4
2022-12-31T21:11:43.687Z,0.4
2022-12-31T21:16:42.037Z,0.4
2022-12-31T21:21:40.246Z,0.3
2022-12-31T21:26:38.400Z,0.4
2022-12-31T21:31:36.577Z,0.3
2022-12-31T21:36:34.546Z,0.2
2022-12-31T21:41:33.995Z,0.1
2022-12-31T21:46:31.169Z,0.1
2022-12-31T21:51:29.495Z,0.1
2022-12-31T21:56:27.949Z,0.1
2022-12-31T22:01:26.284Z,0
2022-12-31T22:06:24.373Z,-0.1
2022-12-31T22:11:22.466Z,-0.1
2022-12-31T22:16:20.765Z,-0.1
2022-12-31T22:21:20.386Z,-0.1
2022-12-31T22:26:18.002Z,-0.1
2022-12-31T22:31:16.537Z,-0.2
2022-12-31T22:36:14.670Z,-0.3
2022-12-31T22:41:12.958Z,-0.2
2022-12-31T22:46:11.247Z,-0.2
2022-12-31T22:51:09.550Z,-0.2
2022-12-31T22:56:07.895Z,-0.4
2022-12-31T23:01:06.229Z,-0.5
2022-12-31T23:06:04.507Z,-0.6
2022-12-31T23:11:02.777Z,-0.7
2022-12-31T23:16:01.111Z,-0.8
2022-12-31T23:20:59.125Z,-1
2022-12-31T23:25:57.384Z,-1
2022-12-31T23:30:55.845Z,-1
2022-12-31T23:35:54.001Z,-1
2022-12-31T23:40:52.141Z,-0.9
2022-12-31T23:45:50.531Z,-0.8
2022-12-31T23:50:52.894Z,-0.8
2022-12-31T23:55:46.956Z,-0.9
